Mortons Gap, Kentucky
Current Conditions -  °F | °C
As of 7:35 AM on Wednesday 22 Oct 2014 (Local Time) from K2I0 Reporting Station
Haze Haze  
Wind Chill: 40°   Ceiling: Unl
Heat Index: 40°   Visibility: 3mi
Dew Point: 40°   Wind: 0mph
Humidity: 100%   Direction: NA
Pressure: 30.28"   Gusts: NA
Location:  37.24°N, 87.48°W
Report Text: K2I0 221235Z AUTO 00000KT 3SM BR CLR 05/05 A3028 RMK AO2 T00470047
Loading
Personal Weather Stations






























Interactive Weather Map
Tropical Storm Tracking
New forecast layout! Learn more

10-Day Weather Forecast

Advertisements
Track Severe Weather on mobile